sensor_id;sensor_type;location;lat;lon;timestamp;pressure;altitude;pressure_sealevel;temperature;humidity
10700;BME280;5401;41.986;21.452;2023-04-01T00:01:22;97475.00;;;15.53;42.18
10700;BME280;5401;41.986;21.452;2023-04-01T00:03:51;97484.72;;;15.59;42.27
10700;BME280;5401;41.986;21.452;2023-04-01T00:06:20;97476.63;;;15.59;42.32
10700;BME280;5401;41.986;21.452;2023-04-01T00:08:47;97480.16;;;15.65;42.36
10700;BME280;5401;41.986;21.452;2023-04-01T00:11:15;97475.31;;;15.67;42.35
10700;BME280;5401;41.986;21.452;2023-04-01T00:13:43;97448.28;;;15.52;42.56
10700;BME280;5401;41.986;21.452;2023-04-01T00:16:10;97484.22;;;15.67;42.48
10700;BME280;5401;41.986;21.452;2023-04-01T00:18:38;97484.22;;;15.67;42.88
10700;BME280;5401;41.986;21.452;2023-04-01T00:21:07;97480.97;;;15.65;42.78
10700;BME280;5401;41.986;21.452;2023-04-01T00:23:35;97480.97;;;15.65;42.68
10700;BME280;5401;41.986;21.452;2023-04-01T00:26:03;97480.16;;;15.65;42.84
10700;BME280;5401;41.986;21.452;2023-04-01T00:28:31;97465.88;;;15.64;42.58
10700;BME280;5401;41.986;21.452;2023-04-01T00:31:04;97475.31;;;15.62;43.03
10700;BME280;5401;41.986;21.452;2023-04-01T00:33:32;97475.56;;;15.55;42.96
10700;BME280;5401;41.986;21.452;2023-04-01T00:36:08;97479.56;;;15.48;43.24
10700;BME280;5401;41.986;21.452;2023-04-01T00:38:36;97475.53;;;15.45;43.20
10700;BME280;5401;41.986;21.452;2023-04-01T00:41:05;97462.53;;;15.42;43.20
10700;BME280;5401;41.986;21.452;2023-04-01T00:43:33;97462.25;;;15.39;43.34
10700;BME280;5401;41.986;21.452;2023-04-01T00:46:00;97430.38;;;15.21;43.62
10700;BME280;5401;41.986;21.452;2023-04-01T00:48:30;97442.31;;;15.35;43.78
10700;BME280;5401;41.986;21.452;2023-04-01T00:51:01;97430.44;;;15.31;43.67
10700;BME280;5401;41.986;21.452;2023-04-01T00:53:32;97434.22;;;15.35;43.47
10700;BME280;5401;41.986;21.452;2023-04-01T00:56:04;97430.13;;;15.33;43.72
10700;BME280;5401;41.986;21.452;2023-04-01T00:58:36;97434.72;;;15.27;43.52
10700;BME280;5401;41.986;21.452;2023-04-01T01:01:06;97438.78;;;15.30;43.76
10700;BME280;5401;41.986;21.452;2023-04-01T01:03:35;97437.69;;;15.31;43.61
10700;BME280;5401;41.986;21.452;2023-04-01T01:06:11;97429.88;;;15.29;44.03
10700;BME280;5401;41.986;21.452;2023-04-01T01:09:03;97430.09;;;15.23;43.78
10700;BME280;5401;41.986;21.452;2023-04-01T01:11:37;97426.28;;;15.14;43.81
10700;BME280;5401;41.986;21.452;2023-04-01T01:14:13;97440.56;;;15.14;44.11
10700;BME280;5401;41.986;21.452;2023-04-01T01:16:52;97424.41;;;15.14;44.02
10700;BME280;5401;41.986;21.452;2023-04-01T01:19:39;97425.16;;;15.10;43.55
10700;BME280;5401;41.986;21.452;2023-04-01T01:22:45;97415.75;;;15.12;43.72
10700;BME280;5401;41.986;21.452;2023-04-01T01:25:32;97410.06;;;15.09;43.87
10700;BME280;5401;41.986;21.452;2023-04-01T01:28:21;97418.13;;;15.04;43.43
10700;BME280;5401;41.986;21.452;2023-04-01T01:30:57;97421.91;;;15.08;43.96
10700;BME280;5401;41.986;21.452;2023-04-01T01:33:42;97421.41;;;15.11;43.68
10700;BME280;5401;41.986;21.452;2023-04-01T01:36:14;97420.56;;;15.10;43.64
10700;BME280;5401;41.986;21.452;2023-04-01T01:38:43;97422.47;;;15.10;43.99
10700;BME280;5401;41.986;21.452;2023-04-01T01:41:13;97410.88;;;15.09;44.00
10700;BME280;5401;41.986;21.452;2023-04-01T01:43:46;97409.53;;;15.07;43.53
10700;BME280;5401;41.986;21.452;2023-04-01T01:46:17;97411.69;;;15.05;43.63
10700;BME280;5401;41.986;21.452;2023-04-01T01:48:47;97408.69;;;15.06;43.73
10700;BME280;5401;41.986;21.452;2023-04-01T01:51:21;97396.00;;;15.02;43.70
10700;BME280;5401;41.986;21.452;2023-04-01T01:53:49;97401.69;;;15.05;43.98
10700;BME280;5401;41.986;21.452;2023-04-01T01:56:18;97411.38;;;15.06;43.68
10700;BME280;5401;41.986;21.452;2023-04-01T01:58:51;97399.25;;;15.04;43.99
10700;BME280;5401;41.986;21.452;2023-04-01T02:01:23;97396.25;;;15.00;43.59
10700;BME280;5401;41.986;21.452;2023-04-01T02:03:52;97402.44;;;14.91;43.65
10700;BME280;5401;41.986;21.452;2023-04-01T02:06:24;97404.59;;;14.89;44.09
10700;BME280;5401;41.986;21.452;2023-04-01T02:08:55;97404.34;;;14.91;44.39
10700;BME280;5401;41.986;21.452;2023-04-01T02:11:27;97400.56;;;14.92;44.26
10700;BME280;5401;41.986;21.452;2023-04-01T02:13:58;97394.31;;;14.86;43.77
10700;BME280;5401;41.986;21.452;2023-04-01T02:16:33;97387.31;;;14.85;43.67
10700;BME280;5401;41.986;21.452;2023-04-01T02:19:03;97379.22;;;14.85;44.19
10700;BME280;5401;41.986;21.452;2023-04-01T02:21:35;97383.53;;;14.86;44.11
10700;BME280;5401;41.986;21.452;2023-04-01T02:24:07;97388.38;;;14.84;43.77
10700;BME280;5401;41.986;21.452;2023-04-01T02:26:35;97380.28;;;14.79;44.47
10700;BME280;5401;41.986;21.452;2023-04-01T02:29:04;97378.09;;;14.76;44.76
10700;BME280;5401;41.986;21.452;2023-04-01T02:31:34;97384.56;;;14.75;43.84
10700;BME280;5401;41.986;21.452;2023-04-01T02:34:03;97374.59;;;14.71;44.79
10700;BME280;5401;41.986;21.452;2023-04-01T02:36:31;97371.03;;;14.65;43.61
10700;BME280;5401;41.986;21.452;2023-04-01T02:39:01;97370.50;;;14.63;44.86
10700;BME280;5401;41.986;21.452;2023-04-01T02:41:30;97368.34;;;14.61;44.48
10700;BME280;5401;41.986;21.452;2023-04-01T02:43:58;97369.13;;;14.61;44.18
10700;BME280;5401;41.986;21.452;2023-04-01T02:46:26;97359.69;;;14.59;44.29
10700;BME280;5401;41.986;21.452;2023-04-01T02:48:54;97351.88;;;14.57;44.98
10700;BME280;5401;41.986;21.452;2023-04-01T02:51:21;97358.88;;;14.58;44.52
10700;BME280;5401;41.986;21.452;2023-04-01T02:53:49;97364.00;;;14.60;44.99
10700;BME280;5401;41.986;21.452;2023-04-01T02:56:18;97345.94;;;14.55;45.17
10700;BME280;5401;41.986;21.452;2023-04-01T02:58:46;97349.44;;;14.56;44.09
10700;BME280;5401;41.986;21.452;2023-04-01T03:01:13;97350.53;;;14.55;44.96
10700;BME280;5401;41.986;21.452;2023-04-01T03:03:41;97353.47;;;14.53;44.63
10700;BME280;5401;41.986;21.452;2023-04-01T03:06:10;97347.81;;;14.55;44.47
10700;BME280;5401;41.986;21.452;2023-04-01T03:08:39;97343.00;;;14.57;44.33
10700;BME280;5401;41.986;21.452;2023-04-01T03:11:06;97338.66;;;14.56;45.19
10700;BME280;5401;41.986;21.452;2023-04-01T03:13:35;97324.63;;;14.54;44.44
10700;BME280;5401;41.986;21.452;2023-04-01T03:16:03;97324.63;;;14.54;44.31
10700;BME280;5401;41.986;21.452;2023-04-01T03:18:31;97323.31;;;14.56;44.56
10700;BME280;5401;41.986;21.452;2023-04-01T03:21:12;97321.16;;;14.58;44.85
10700;BME280;5401;41.986;21.452;2023-04-01T03:23:40;97325.22;;;14.61;44.25
10700;BME280;5401;41.986;21.452;2023-04-01T03:26:07;97322.50;;;14.56;44.44
10700;BME280;5401;41.986;21.452;2023-04-01T03:28:37;97295.47;;;14.36;44.67
10700;BME280;5401;41.986;21.452;2023-04-01T03:31:05;97312.22;;;14.48;44.71
10700;BME280;5401;41.986;21.452;2023-04-01T03:33:33;97311.16;;;14.49;45.39
10700;BME280;5401;41.986;21.452;2023-04-01T03:36:00;97316.25;;;14.45;44.75
10700;BME280;5401;41.986;21.452;2023-04-01T03:38:29;97311.66;;;14.41;45.43
10700;BME280;5401;41.986;21.452;2023-04-01T03:40:56;97305.41;;;14.35;44.59
10700;BME280;5401;41.986;21.452;2023-04-01T03:43:24;97306.47;;;14.29;44.74
10700;BME280;5401;41.986;21.452;2023-04-01T03:45:53;97311.59;;;14.26;45.17
10700;BME280;5401;41.986;21.452;2023-04-01T03:48:22;97322.84;;;14.23;44.82
10700;BME280;5401;41.986;21.452;2023-04-01T03:50:50;97312.88;;;14.24;44.84
10700;BME280;5401;41.986;21.452;2023-04-01T03:53:17;97291.81;;;14.06;45.13
10700;BME280;5401;41.986;21.452;2023-04-01T03:55:46;97309.88;;;14.15;45.01
10700;BME280;5401;41.986;21.452;2023-04-01T03:58:14;97313.66;;;14.14;44.72
10700;BME280;5401;41.986;21.452;2023-04-01T04:00:41;97312.81;;;14.14;44.89
10700;BME280;5401;41.986;21.452;2023-04-01T04:03:10;97308.00;;;14.16;45.23
10700;BME280;5401;41.986;21.452;2023-04-01T04:05:46;97297.50;;;14.14;46.21
10700;BME280;5401;41.986;21.452;2023-04-01T04:08:13;97306.09;;;14.11;45.54
10700;BME280;5401;41.986;21.452;2023-04-01T04:10:41;97312.81;;;14.14;45.51
10700;BME280;5401;41.986;21.452;2023-04-01T04:13:09;97319.03;;;14.14;45.23
10700;BME280;5401;41.986;21.452;2023-04-01T04:15:36;97331.66;;;14.14;45.79
10700;BME280;5401;41.986;21.452;2023-04-01T04:18:05;97320.66;;;14.15;45.87
10700;BME280;5401;41.986;21.452;2023-04-01T04:20:34;97315.50;;;14.14;45.45
10700;BME280;5401;41.986;21.452;2023-04-01T04:23:03;97315.25;;;14.10;46.17
10700;BME280;5401;41.986;21.452;2023-04-01T04:25:30;97315.25;;;14.10;46.34
10700;BME280;5401;41.986;21.452;2023-04-01T04:27:57;97302.03;;;14.09;46.38
10700;BME280;5401;41.986;21.452;2023-04-01T04:30:25;97279.84;;;13.97;45.21
10700;BME280;5401;41.986;21.452;2023-04-01T04:32:52;97290.28;;;13.84;46.01
10700;BME280;5401;41.986;21.452;2023-04-01T04:35:20;97295.09;;;13.82;45.63
10700;BME280;5401;41.986;21.452;2023-04-01T04:37:48;97289.41;;;13.78;46.62
10700;BME280;5401;41.986;21.452;2023-04-01T04:40:16;97286.72;;;13.78;46.57
10700;BME280;5401;41.986;21.452;2023-04-01T04:42:44;97267.63;;;13.80;46.98
10700;BME280;5401;41.986;21.452;2023-04-01T04:45:12;97264.16;;;13.84;46.13
10700;BME280;5401;41.986;21.452;2023-04-01T04:47:39;97249.13;;;13.88;45.74
10700;BME280;5401;41.986;21.452;2023-04-01T04:50:08;97259.97;;;13.98;46.40
10700;BME280;5401;41.986;21.452;2023-04-01T04:52:35;97263.88;;;14.22;45.66
10700;BME280;5401;41.986;21.452;2023-04-01T04:55:05;97273.47;;;15.29;45.47
10700;BME280;5401;41.986;21.452;2023-04-01T04:57:33;97274.44;;;16.51;44.01
10700;BME280;5401;41.986;21.452;2023-04-01T05:00:00;97289.84;;;17.61;43.07
10700;BME280;5401;41.986;21.452;2023-04-01T05:02:28;97274.16;;;18.71;41.34
10700;BME280;5401;41.986;21.452;2023-04-01T05:04:56;97270.22;;;19.78;39.86
10700;BME280;5401;41.986;21.452;2023-04-01T05:07:24;97260.97;;;20.55;39.02
10700;BME280;5401;41.986;21.452;2023-04-01T05:09:51;97245.13;;;21.24;38.22
10700;BME280;5401;41.986;21.452;2023-04-01T05:12:20;97249.19;;;22.26;36.87
10700;BME280;5401;41.986;21.452;2023-04-01T05:14:47;97247.31;;;23.21;35.78
10700;BME280;5401;41.986;21.452;2023-04-01T05:17:15;97252.22;;;23.99;35.08
10700;BME280;5401;41.986;21.452;2023-04-01T05:19:42;97247.06;;;24.14;34.87
10700;BME280;5401;41.986;21.452;2023-04-01T05:22:10;97261.53;;;23.39;35.03
10700;BME280;5401;41.986;21.452;2023-04-01T05:24:37;97260.72;;;22.23;36.35
10700;BME280;5401;41.986;21.452;2023-04-01T05:27:05;97246.00;;;21.46;36.78
10700;BME280;5401;41.986;21.452;2023-04-01T05:29:34;97232.00;;;20.91;38.00
10700;BME280;5401;41.986;21.452;2023-04-01T05:32:01;97242.72;;;20.29;38.56
10700;BME280;5401;41.986;21.452;2023-04-01T05:34:29;97236.72;;;20.01;39.07
10700;BME280;5401;41.986;21.452;2023-04-01T05:36:56;97224.13;;;19.73;39.43
10700;BME280;5401;41.986;21.452;2023-04-01T05:39:24;97192.22;;;19.65;39.49
10700;BME280;5401;41.986;21.452;2023-04-01T05:41:52;97204.25;;;19.77;39.35
10700;BME280;5401;41.986;21.452;2023-04-01T05:44:19;97205.78;;;19.83;39.41
10700;BME280;5401;41.986;21.452;2023-04-01T05:46:48;97204.53;;;19.76;39.60
10700;BME280;5401;41.986;21.452;2023-04-01T05:49:16;97194.84;;;19.70;39.41
10700;BME280;5401;41.986;21.452;2023-04-01T05:51:43;97210.88;;;19.71;39.58
10700;BME280;5401;41.986;21.452;2023-04-01T05:54:11;97208.34;;;19.75;39.55
10700;BME280;5401;41.986;21.452;2023-04-01T05:56:38;97209.16;;;19.75;39.33
10700;BME280;5401;41.986;21.452;2023-04-01T05:59:06;97208.34;;;20.06;39.32
10700;BME280;5401;41.986;21.452;2023-04-01T06:01:33;97180.00;;;20.12;38.98
10700;BME280;5401;41.986;21.452;2023-04-01T06:04:02;97180.19;;;20.16;38.89
10700;BME280;5401;41.986;21.452;2023-04-01T06:06:31;97169.00;;;20.17;39.01
10700;BME280;5401;41.986;21.452;2023-04-01T06:09:07;97190.53;;;20.01;39.10
10700;BME280;5401;41.986;21.452;2023-04-01T06:11:40;97196.38;;;19.76;39.19
10700;BME280;5401;41.986;21.452;2023-04-01T06:14:22;97199.72;;;19.55;39.58
10700;BME280;5401;41.986;21.452;2023-04-01T06:17:06;97194.84;;;19.38;39.24
10700;BME280;5401;41.986;21.452;2023-04-01T06:19:47;97191.47;;;19.28;39.27
10700;BME280;5401;41.986;21.452;2023-04-01T06:25:34;97179.75;;;19.14;39.59
10700;BME280;5401;41.986;21.452;2023-04-01T06:31:11;97195.69;;;19.52;39.83
10700;BME280;5401;41.986;21.452;2023-04-01T06:33:55;97190.34;;;19.79;39.73
10700;BME280;5401;41.986;21.452;2023-04-01T06:36:46;97190.84;;;20.12;39.06
10700;BME280;5401;41.986;21.452;2023-04-01T06:39:26;97178.34;;;20.11;39.12
10700;BME280;5401;41.986;21.452;2023-04-01T06:42:15;97186.44;;;20.16;39.52
10700;BME280;5401;41.986;21.452;2023-04-01T06:44:58;97181.72;;;20.48;39.02
10700;BME280;5401;41.986;21.452;2023-04-01T06:47:36;97172.94;;;20.78;38.45
10700;BME280;5401;41.986;21.452;2023-04-01T06:50:19;97164.75;;;20.91;38.06
10700;BME280;5401;41.986;21.452;2023-04-01T06:52:59;97150.69;;;21.33;37.93
10700;BME280;5401;41.986;21.452;2023-04-01T06:55:34;97151.13;;;21.61;37.55
10700;BME280;5401;41.986;21.452;2023-04-01T06:58:05;97132.13;;;21.48;37.84
10700;BME280;5401;41.986;21.452;2023-04-01T07:00:36;97141.66;;;21.89;37.22
10700;BME280;5401;41.986;21.452;2023-04-01T07:03:12;97121.75;;;21.80;36.88
10700;BME280;5401;41.986;21.452;2023-04-01T07:05:44;97120.38;;;21.39;38.00
10700;BME280;5401;41.986;21.452;2023-04-01T07:08:20;97117.16;;;21.67;37.39
10700;BME280;5401;41.986;21.452;2023-04-01T07:10:51;97108.56;;;22.04;37.47
10700;BME280;5401;41.986;21.452;2023-04-01T07:13:26;97095.69;;;22.26;37.15
10700;BME280;5401;41.986;21.452;2023-04-01T07:16:00;97094.34;;;21.85;37.17
10700;BME280;5401;41.986;21.452;2023-04-01T07:18:34;97102.56;;;21.93;36.84
10700;BME280;5401;41.986;21.452;2023-04-01T07:21:04;97098.94;;;22.06;36.60
10700;BME280;5401;41.986;21.452;2023-04-01T07:23:40;97115.88;;;21.65;37.14
10700;BME280;5401;41.986;21.452;2023-04-01T07:26:15;97119.63;;;21.12;37.33
10700;BME280;5401;41.986;21.452;2023-04-01T07:28:44;97110.19;;;21.10;37.70
10700;BME280;5401;41.986;21.452;2023-04-01T07:31:20;97102.31;;;20.60;37.97
10700;BME280;5401;41.986;21.452;2023-04-01T07:34:01;97106.91;;;20.11;38.22
10700;BME280;5401;41.986;21.452;2023-04-01T07:36:35;97083.13;;;19.76;38.64
10700;BME280;5401;41.986;21.452;2023-04-01T07:39:15;97087.00;;;20.02;38.58
10700;BME280;5401;41.986;21.452;2023-04-01T07:41:51;97073.59;;;19.92;38.83
10700;BME280;5401;41.986;21.452;2023-04-01T07:44:25;97086.50;;;20.00;39.01
10700;BME280;5401;41.986;21.452;2023-04-01T07:47:04;97074.09;;;20.07;39.07
10700;BME280;5401;41.986;21.452;2023-04-01T07:49:40;97063.34;;;20.16;39.07
10700;BME280;5401;41.986;21.452;2023-04-01T07:52:15;97070.94;;;20.40;38.96
10700;BME280;5401;41.986;21.452;2023-04-01T07:54:49;97064.22;;;20.25;38.98
10700;BME280;5401;41.986;21.452;2023-04-01T07:57:22;97053.47;;;20.06;39.18
10700;BME280;5401;41.986;21.452;2023-04-01T07:59:59;97053.72;;;20.45;39.11
10700;BME280;5401;41.986;21.452;2023-04-01T08:02:36;97054.00;;;21.13;38.42
10700;BME280;5401;41.986;21.452;2023-04-01T08:05:17;97038.22;;;21.46;38.24
10700;BME280;5401;41.986;21.452;2023-04-01T08:07:52;97038.78;;;22.03;37.89
10700;BME280;5401;41.986;21.452;2023-04-01T08:10:29;97000.56;;;22.33;36.60
10700;BME280;5401;41.986;21.452;2023-04-01T08:13:08;97018.91;;;22.99;36.45
10700;BME280;5401;41.986;21.452;2023-04-01T08:15:48;96984.88;;;23.05;36.01
10700;BME280;5401;41.986;21.452;2023-04-01T08:18:26;97022.44;;;23.25;36.14
10700;BME280;5401;41.986;21.452;2023-04-01T08:21:00;97017.78;;;23.00;35.88
10700;BME280;5401;41.986;21.452;2023-04-01T08:23:31;96990.97;;;22.69;36.93
10700;BME280;5401;41.986;21.452;2023-04-01T08:26:05;96993.19;;;23.17;36.61
10700;BME280;5401;41.986;21.452;2023-04-01T08:28:38;97003.41;;;23.45;36.21
10700;BME280;5401;41.986;21.452;2023-04-01T08:31:09;96982.16;;;23.51;36.08
10700;BME280;5401;41.986;21.452;2023-04-01T08:33:40;97017.28;;;23.86;36.11
10700;BME280;5401;41.986;21.452;2023-04-01T08:36:12;97005.69;;;23.89;36.00
10700;BME280;5401;41.986;21.452;2023-04-01T08:38:43;97014.88;;;24.13;35.75
10700;BME280;5401;41.986;21.452;2023-04-01T08:41:45;97002.69;;;24.10;35.67
10700;BME280;5401;41.986;21.452;2023-04-01T08:45:02;97006.53;;;24.09;35.50
10700;BME280;5401;41.986;21.452;2023-04-01T08:47:45;97010.69;;;24.15;35.65
10700;BME280;5401;41.986;21.452;2023-04-01T08:50:50;97005.75;;;24.09;35.44
10700;BME280;5401;41.986;21.452;2023-04-01T08:53:31;96989.16;;;24.14;35.52
10700;BME280;5401;41.986;21.452;2023-04-01T08:56:09;97002.06;;;24.05;35.68
10700;BME280;5401;41.986;21.452;2023-04-01T08:59:02;96996.44;;;24.01;35.81
10700;BME280;5401;41.986;21.452;2023-04-01T09:01:46;96997.53;;;24.09;35.73
10700;BME280;5401;41.986;21.452;2023-04-01T09:04:25;96996.53;;;24.13;35.50
10700;BME280;5401;41.986;21.452;2023-04-01T09:07:06;96989.06;;;24.02;35.79
10700;BME280;5401;41.986;21.452;2023-04-01T09:12:47;96980.81;;;23.20;36.24
10700;BME280;5401;41.986;21.452;2023-04-01T09:18:45;96969.78;;;22.41;36.65
10700;BME280;5401;41.986;21.452;2023-04-01T09:24:40;96958.88;;;22.57;36.43
10700;BME280;5401;41.986;21.452;2023-04-01T09:27:17;96969.59;;;22.46;36.54
10700;BME280;5401;41.986;21.452;2023-04-01T09:32:59;96986.78;;;22.38;36.46
10700;BME280;5401;41.986;21.452;2023-04-01T09:35:39;97005.53;;;22.39;36.59
10700;BME280;5401;41.986;21.452;2023-04-01T09:38:20;97030.56;;;22.33;37.33
10700;BME280;5401;41.986;21.452;2023-04-01T09:40:55;97028.59;;;22.17;37.35
10700;BME280;5401;41.986;21.452;2023-04-01T09:43:26;97053.16;;;22.17;37.80
10700;BME280;5401;41.986;21.452;2023-04-01T09:48:55;97039.84;;;21.85;38.30
10700;BME280;5401;41.986;21.452;2023-04-01T09:51:34;97056.66;;;21.79;38.38
10700;BME280;5401;41.986;21.452;2023-04-01T09:54:23;97062.06;;;21.70;38.18
10700;BME280;5401;41.986;21.452;2023-04-01T09:57:22;97053.19;;;21.56;39.02
10700;BME280;5401;41.986;21.452;2023-04-01T10:00:19;97000.44;;;21.31;39.18
10700;BME280;5401;41.986;21.452;2023-04-01T10:06:22;97039.88;;;21.55;39.13
10700;BME280;5401;41.986;21.452;2023-04-01T10:12:18;97029.06;;;21.42;39.48
10700;BME280;5401;41.986;21.452;2023-04-01T10:15:30;97053.41;;;21.38;39.96
10700;BME280;5401;41.986;21.452;2023-04-01T10:18:27;97037.16;;;21.33;40.05
10700;BME280;5401;41.986;21.452;2023-04-01T10:21:20;97025.41;;;21.24;40.00
10700;BME280;5401;41.986;21.452;2023-04-01T10:27:07;97038.22;;;21.46;40.18
10700;BME280;5401;41.986;21.452;2023-04-01T10:29:53;97038.09;;;21.50;40.68
10700;BME280;5401;41.986;21.452;2023-04-01T10:33:09;97025.19;;;21.64;40.99
10700;BME280;5401;41.986;21.452;2023-04-01T10:36:14;97031.38;;;21.86;40.02
10700;BME280;5401;41.986;21.452;2023-04-01T10:42:22;97014.69;;;22.35;40.33
10700;BME280;5401;41.986;21.452;2023-04-01T10:45:32;97017.78;;;22.58;39.95
10700;BME280;5401;41.986;21.452;2023-04-01T10:48:14;97005.41;;;22.78;39.67
10700;BME280;5401;41.986;21.452;2023-04-01T10:51:10;97007.34;;;22.94;38.76
10700;BME280;5401;41.986;21.452;2023-04-01T10:54:03;96994.97;;;23.22;38.88
10700;BME280;5401;41.986;21.452;2023-04-01T10:56:39;96999.75;;;23.33;38.52
10700;BME280;5401;41.986;21.452;2023-04-01T10:59:32;96974.66;;;23.39;38.09
10700;BME280;5401;41.986;21.452;2023-04-01T11:09:08;96979.91;;;22.99;38.44
10700;BME280;5401;41.986;21.452;2023-04-01T11:15:32;96975.06;;;22.79;37.83
10700;BME280;5401;41.986;21.452;2023-04-01T11:18:32;96984.84;;;22.72;38.00
10700;BME280;5401;41.986;21.452;2023-04-01T11:24:35;96967.84;;;22.75;38.27
10700;BME280;5401;41.986;21.452;2023-04-01T11:27:17;96953.72;;;22.73;37.71
10700;BME280;5401;41.986;21.452;2023-04-01T11:29:58;96970.09;;;22.56;37.71
10700;BME280;5401;41.986;21.452;2023-04-01T11:32:52;96972.81;;;22.48;38.11
10700;BME280;5401;41.986;21.452;2023-04-01T11:38:31;96973.00;;;22.34;38.14
10700;BME280;5401;41.986;21.452;2023-04-01T11:41:15;96974.75;;;22.30;37.96
10700;BME280;5401;41.986;21.452;2023-04-01T11:43:57;96976.69;;;22.30;38.74
10700;BME280;5401;41.986;21.452;2023-04-01T11:46:39;96980.19;;;22.30;38.66
10700;BME280;5401;41.986;21.452;2023-04-01T11:49:29;96967.34;;;22.22;38.49
10700;BME280;5401;41.986;21.452;2023-04-01T11:52:15;96991.88;;;22.14;39.00
10700;BME280;5401;41.986;21.452;2023-04-01T11:54:59;96990.06;;;22.10;38.58
10700;BME280;5401;41.986;21.452;2023-04-01T11:57:43;96995.00;;;21.99;38.73
10700;BME280;5401;41.986;21.452;2023-04-01T12:00:24;97011.84;;;22.01;38.75
10700;BME280;5401;41.986;21.452;2023-04-01T12:03:13;97002.56;;;22.02;39.41
10700;BME280;5401;41.986;21.452;2023-04-01T12:05:47;97006.88;;;22.03;39.40
10700;BME280;5401;41.986;21.452;2023-04-01T12:08:33;97022.59;;;21.98;39.26
10700;BME280;5401;41.986;21.452;2023-04-01T12:11:09;97035.06;;;21.90;39.29
10700;BME280;5401;41.986;21.452;2023-04-01T12:13:51;97051.72;;;21.89;38.99
10700;BME280;5401;41.986;21.452;2023-04-01T12:16:28;97069.59;;;21.73;39.17
10700;BME280;5401;41.986;21.452;2023-04-01T12:19:08;97071.16;;;21.57;39.28
10700;BME280;5401;41.986;21.452;2023-04-01T12:21:45;97076.81;;;21.39;39.43
10700;BME280;5401;41.986;21.452;2023-04-01T12:24:36;97100.41;;;21.30;39.13
10700;BME280;5401;41.986;21.452;2023-04-01T12:27:23;97079.06;;;21.24;39.52
10700;BME280;5401;41.986;21.452;2023-04-01T12:30:02;97061.44;;;21.21;39.76
10700;BME280;5401;41.986;21.452;2023-04-01T12:32:40;97081.31;;;21.44;39.07
10700;BME280;5401;41.986;21.452;2023-04-01T12:35:24;97063.47;;;21.59;39.75
10700;BME280;5401;41.986;21.452;2023-04-01T12:38:08;97040.66;;;21.85;39.06
10700;BME280;5401;41.986;21.452;2023-04-01T12:40:56;97026.94;;;22.07;39.51
10700;BME280;5401;41.986;21.452;2023-04-01T12:43:48;97040.31;;;22.25;39.33
10700;BME280;5401;41.986;21.452;2023-04-01T12:46:25;97025.00;;;22.46;39.06
10700;BME280;5401;41.986;21.452;2023-04-01T12:49:19;97014.72;;;22.68;38.37
10700;BME280;5401;41.986;21.452;2023-04-01T12:52:01;96999.47;;;22.84;38.71
10700;BME280;5401;41.986;21.452;2023-04-01T12:55:00;96987.75;;;22.75;38.32
10700;BME280;5401;41.986;21.452;2023-04-01T12:57:57;96992.59;;;22.87;38.43
10700;BME280;5401;41.986;21.452;2023-04-01T13:00:43;96985.03;;;23.00;38.44
10700;BME280;5401;41.986;21.452;2023-04-01T13:03:27;96978.94;;;23.03;38.43
10700;BME280;5401;41.986;21.452;2023-04-01T13:06:26;96979.09;;;22.90;37.96
10700;BME280;5401;41.986;21.452;2023-04-01T13:09:05;96964.97;;;22.88;37.98
10700;BME280;5401;41.986;21.452;2023-04-01T13:11:54;96969.75;;;23.08;37.94
10700;BME280;5401;41.986;21.452;2023-04-01T13:15:05;96972.47;;;23.16;37.92
10700;BME280;5401;41.986;21.452;2023-04-01T13:17:43;96968.72;;;23.37;37.67
10700;BME280;5401;41.986;21.452;2023-04-01T13:20:18;96974.16;;;23.46;37.10
10700;BME280;5401;41.986;21.452;2023-04-01T13:22:58;96965.78;;;23.51;36.86
10700;BME280;5401;41.986;21.452;2023-04-01T13:25:36;96959.00;;;23.65;36.63
10700;BME280;5401;41.986;21.452;2023-04-01T13:28:14;96961.31;;;23.83;36.53
10700;BME280;5401;41.986;21.452;2023-04-01T13:30:49;96927.50;;;23.96;36.02
10700;BME280;5401;41.986;21.452;2023-04-01T13:33:27;96930.53;;;23.95;35.58
10700;BME280;5401;41.986;21.452;2023-04-01T13:36:08;96931.22;;;23.92;35.50
10700;BME280;5401;41.986;21.452;2023-04-01T13:38:48;96928.03;;;23.81;35.00
10700;BME280;5401;41.986;21.452;2023-04-01T13:41:26;96924.88;;;23.71;35.03
10700;BME280;5401;41.986;21.452;2023-04-01T13:44:02;96911.22;;;23.71;34.83
10700;BME280;5401;41.986;21.452;2023-04-01T13:46:59;96903.22;;;23.66;34.56
10700;BME280;5401;41.986;21.452;2023-04-01T13:52:51;96878.69;;;23.58;34.14
10700;BME280;5401;41.986;21.452;2023-04-01T13:55:44;96900.97;;;23.68;34.14
10700;BME280;5401;41.986;21.452;2023-04-01T13:58:35;96887.00;;;23.61;34.02
10700;BME280;5401;41.986;21.452;2023-04-01T14:01:14;96890.09;;;23.43;34.10
10700;BME280;5401;41.986;21.452;2023-04-01T14:04:15;96890.91;;;23.06;34.10
10700;BME280;5401;41.986;21.452;2023-04-01T14:06:57;96903.81;;;22.72;33.86
10700;BME280;5401;41.986;21.452;2023-04-01T14:09:58;96897.09;;;22.36;34.09
10700;BME280;5401;41.986;21.452;2023-04-01T14:12:30;96900.91;;;22.02;34.42
10700;BME280;5401;41.986;21.452;2023-04-01T14:15:08;96912.59;;;21.85;34.10
10700;BME280;5401;41.986;21.452;2023-04-01T14:18:02;96919.25;;;21.63;34.26
10700;BME280;5401;41.986;21.452;2023-04-01T14:20:39;96928.97;;;21.47;34.57
10700;BME280;5401;41.986;21.452;2023-04-01T14:23:36;96924.72;;;21.33;34.56
10700;BME280;5401;41.986;21.452;2023-04-01T14:26:18;96937.94;;;21.17;34.19
10700;BME280;5401;41.986;21.452;2023-04-01T14:28:56;96936.28;;;21.08;34.57
10700;BME280;5401;41.986;21.452;2023-04-01T14:31:36;96949.41;;;21.06;34.29
10700;BME280;5401;41.986;21.452;2023-04-01T14:34:18;96941.38;;;21.01;34.32
10700;BME280;5401;41.986;21.452;2023-04-01T14:37:00;96960.78;;;21.08;34.34
10700;BME280;5401;41.986;21.452;2023-04-01T14:39:43;96954.63;;;20.94;34.48
10700;BME280;5401;41.986;21.452;2023-04-01T14:42:28;96966.31;;;20.95;34.07
10700;BME280;5401;41.986;21.452;2023-04-01T14:45:22;96963.84;;;20.85;34.44